Time;durP1;ratioP1;P1;durP2;ratioP2;P2;SDS_P1;SDS_P2;PMS_P1;PMS_P2;Temp;Humidity;BMP_temperature;BMP_pressure;BME280_temperature;BME280_humidity;BME280_pressure;Samples;Min_cycle;Max_cycle;Signal;HPM_P1;HPM_P2
2021/05/11 00:00:09;;;;;;;4.27;3.87;;;15.20;99.90;;;;;;5029738;28;20350;-60
2021/05/11 00:02:37;;;;;;;5.07;4.23;;;15.20;99.90;;;;;;5029812;28;20240;-60
2021/05/11 00:05:08;;;;;;;5.40;4.57;;;15.10;99.90;;;;;;5029790;28;20268;-59
2021/05/11 00:07:37;;;;;;;5.20;4.50;;;15.10;99.90;;;;;;5029639;28;20307;-60
2021/05/11 00:10:08;;;;;;;6.17;4.63;;;15.10;99.90;;;;;;5029832;28;20236;-60
2021/05/11 00:12:36;;;;;;;6.20;4.67;;;15.10;99.90;;;;;;5029409;28;20229;-60
2021/05/11 00:15:07;;;;;;;5.67;5.00;;;15.10;99.90;;;;;;5029777;28;20782;-60
2021/05/11 00:17:36;;;;;;;5.73;5.03;;;15.00;99.90;;;;;;5029349;28;20378;-60
2021/05/11 00:20:06;;;;;;;6.37;5.33;;;15.00;99.90;;;;;;5029570;28;20237;-60
2021/05/11 00:22:35;;;;;;;5.97;5.37;;;15.00;99.90;;;;;;5029670;28;20240;-60
2021/05/11 00:25:05;;;;;;;6.37;5.00;;;14.90;99.90;;;;;;5029731;28;20298;-60
2021/05/11 00:27:35;;;;;;;5.90;5.30;;;14.90;99.90;;;;;;5029010;28;20286;-59
2021/05/11 00:30:04;;;;;;;7.70;5.13;;;15.00;99.90;;;;;;5027794;28;20245;-60
2021/05/11 00:32:33;;;;;;;7.30;5.77;;;15.00;99.90;;;;;;5027524;28;20307;-60
2021/05/11 00:35:02;;;;;;;7.37;5.70;;;14.90;99.90;;;;;;5024897;28;20234;-60
2021/05/11 00:37:31;;;;;;;6.03;5.43;;;15.00;99.90;;;;;;5029414;28;20264;-60
2021/05/11 00:40:00;;;;;;;5.97;5.30;;;14.90;99.90;;;;;;5029126;28;20292;-60
2021/05/11 00:42:30;;;;;;;6.50;5.63;;;14.80;99.90;;;;;;5028815;28;20244;-61
2021/05/11 00:44:58;;;;;;;6.53;5.90;;;14.90;99.90;;;;;;5029121;28;20236;-60
2021/05/11 00:47:26;;;;;;;9.10;5.90;;;14.80;99.90;;;;;;5028975;28;20241;-59
2021/05/11 00:49:54;;;;;;;6.43;5.43;;;14.70;99.90;;;;;;5028552;28;20323;-61
2021/05/11 00:52:22;;;;;;;6.33;5.67;;;14.60;99.90;;;;;;5029418;28;20331;-59
2021/05/11 00:54:49;;;;;;;6.43;5.70;;;14.70;99.90;;;;;;5028095;28;20234;-60
2021/05/11 00:57:17;;;;;;;5.90;5.30;;;14.60;99.90;;;;;;5029005;28;20323;-60
2021/05/11 00:59:46;;;;;;;6.20;5.60;;;14.60;99.90;;;;;;5028825;28;20418;-60
2021/05/11 01:02:13;;;;;;;6.50;5.70;;;14.60;99.90;;;;;;5028943;28;20237;-60
2021/05/11 01:04:40;;;;;;;8.40;6.40;;;14.50;99.90;;;;;;5028463;28;20239;-60
2021/05/11 01:07:08;;;;;;;7.67;6.87;;;14.50;99.90;;;;;;5028859;28;20237;-59
2021/05/11 01:09:35;;;;;;;8.17;6.13;;;14.50;99.90;;;;;;5027969;28;20640;-60
2021/05/11 01:12:04;;;;;;;6.87;6.23;;;14.50;99.90;;;;;;5028985;28;20324;-61
2021/05/11 01:14:31;;;;;;;8.80;6.67;;;14.40;99.90;;;;;;5027082;28;20294;-60
2021/05/11 01:17:00;;;;;;;7.70;6.93;;;14.40;99.90;;;;;;5028773;28;20628;-61
2021/05/11 01:19:39;;;;;;;7.33;6.60;;;14.40;99.90;;;;;;5028370;28;20272;-60
2021/05/11 01:25:07;;;;;;;7.20;6.50;;;14.30;99.90;;;;;;5024717;28;20244;-59
2021/05/11 01:27:49;;;;;;;6.73;6.13;;;14.20;99.90;;;;;;5027633;28;20232;-61
2021/05/11 01:30:46;;;;;;;9.43;6.90;;;14.20;99.90;;;;;;5024549;28;20244;-60
2021/05/11 01:44:59;;;;;;;7.77;6.97;;;14.20;99.90;;;;;;5008217;28;20379;-61
2021/05/11 01:50:17;;;;;;;5.57;4.43;;;14.10;99.90;;;;;;5007718;28;20237;-59
2021/05/11 01:52:58;;;;;;;6.07;4.10;;;14.10;99.90;;;;;;5008073;28;20284;-61
2021/05/11 01:55:41;;;;;;;5.62;4.08;;;14.00;99.90;;;;;;4820449;28;10001082;-60
2021/05/11 01:58:43;;;;;;;5.28;3.65;;;13.90;99.90;;;;;;1732035;28;10001977;-60
2021/05/11 02:23:23;;;;;;;5.93;4.40;;;13.70;99.90;;;;;;5026497;28;20770;-61
2021/05/11 02:25:50;;;;;;;7.37;4.90;;;13.70;99.90;;;;;;5009735;28;20224;-61
2021/05/11 02:28:18;;;;;;;6.90;4.33;;;13.70;99.90;;;;;;5024815;28;20243;-61
2021/05/11 02:30:45;;;;;;;6.53;4.33;;;13.80;99.90;;;;;;5026918;28;21374;-61
2021/05/11 02:33:13;;;;;;;4.83;4.00;;;13.80;99.90;;;;;;5027520;28;20279;-60
2021/05/11 02:35:40;;;;;;;6.27;4.30;;;13.80;99.90;;;;;;5029215;28;20593;-59
2021/05/11 02:38:08;;;;;;;5.60;4.37;;;13.70;99.90;;;;;;5031720;28;20247;-59
2021/05/11 02:40:35;;;;;;;6.03;4.60;;;13.70;99.90;;;;;;5031196;28;20274;-60
2021/05/11 02:43:05;;;;;;;6.07;4.50;;;13.80;99.90;;;;;;5031430;28;20357;-60
2021/05/11 02:45:35;;;;;;;6.73;4.30;;;13.70;99.90;;;;;;5030926;28;20259;-61
2021/05/11 02:48:03;;;;;;;5.57;4.27;;;13.80;99.90;;;;;;5031619;28;21280;-60
2021/05/11 02:50:31;;;;;;;5.93;4.80;;;13.80;99.90;;;;;;5031130;28;20232;-60
2021/05/11 02:52:59;;;;;;;7.23;4.77;;;13.80;99.90;;;;;;5031337;28;20232;-61
2021/05/11 02:55:27;;;;;;;5.60;5.10;;;13.80;99.90;;;;;;5030852;28;20244;-60
2021/05/11 02:57:54;;;;;;;5.60;4.60;;;13.80;99.90;;;;;;5046538;28;20236;-60
2021/05/11 03:00:24;;;;;;;6.20;5.53;;;13.80;99.90;;;;;;5031161;28;20236;-59
2021/05/11 03:02:52;;;;;;;6.90;4.70;;;13.70;99.90;;;;;;5031304;28;20298;-61
2021/05/11 03:05:20;;;;;;;7.20;5.07;;;13.70;99.90;;;;;;5031151;28;20633;-61
2021/05/11 03:07:47;;;;;;;6.57;4.80;;;13.80;99.90;;;;;;5030824;28;20236;-61
2021/05/11 03:10:18;;;;;;;5.33;4.80;;;13.80;99.90;;;;;;5030403;28;20241;-61
2021/05/11 03:12:45;;;;;;;7.90;5.40;;;13.70;99.90;;;;;;5031106;28;20734;-60
2021/05/11 03:15:13;;;;;;;5.80;4.80;;;13.70;99.90;;;;;;5031118;28;20701;-60
2021/05/11 03:17:41;;;;;;;7.07;5.83;;;13.60;99.90;;;;;;5031105;28;20225;-60
2021/05/11 03:20:13;;;;;;;6.00;5.33;;;13.50;99.90;;;;;;5030963;28;20272;-61
2021/05/11 03:22:40;;;;;;;6.13;5.53;;;13.50;99.90;;;;;;5030140;28;20232;-61
2021/05/11 03:25:09;;;;;;;7.23;5.63;;;13.50;99.90;;;;;;5029213;28;20248;-60
2021/05/11 03:27:36;;;;;;;6.93;5.57;;;13.50;99.90;;;;;;5028731;28;20240;-61
2021/05/11 03:30:05;;;;;;;7.17;6.47;;;13.50;99.90;;;;;;5030787;28;20264;-61
2021/05/11 03:32:33;;;;;;;6.97;6.20;;;13.50;99.90;;;;;;5030657;28;20774;-60
2021/05/11 03:35:00;;;;;;;7.77;6.17;;;13.50;99.90;;;;;;5030663;28;20244;-60
2021/05/11 03:37:28;;;;;;;6.43;5.67;;;13.50;99.90;;;;;;5029949;28;20255;-60
2021/05/11 03:39:56;;;;;;;6.50;5.90;;;13.50;99.90;;;;;;5030812;28;20255;-61
2021/05/11 03:42:26;;;;;;;7.73;6.97;;;13.50;99.90;;;;;;5030546;28;20236;-61
2021/05/11 03:44:56;;;;;;;7.43;6.60;;;13.50;99.90;;;;;;5030251;28;20290;-61
2021/05/11 03:47:26;;;;;;;5.90;5.30;;;13.40;99.90;;;;;;5029657;28;20268;-61
2021/05/11 03:49:54;;;;;;;7.57;6.07;;;13.50;99.90;;;;;;5029700;28;20294;-60
2021/05/11 03:52:22;;;;;;;9.13;7.60;;;13.50;99.90;;;;;;5030131;28;20323;-61
2021/05/11 03:54:50;;;;;;;8.10;6.80;;;13.40;99.90;;;;;;5029408;28;20652;-61
2021/05/11 03:57:18;;;;;;;6.90;6.17;;;13.40;99.90;;;;;;5030151;28;20239;-61
2021/05/11 03:59:46;;;;;;;6.93;6.10;;;13.50;99.90;;;;;;5029641;28;20714;-61
2021/05/11 04:02:14;;;;;;;6.33;5.73;;;13.40;99.90;;;;;;5029818;28;20325;-61
2021/05/11 04:04:42;;;;;;;6.10;5.50;;;13.40;99.90;;;;;;5029196;28;20244;-61
2021/05/11 04:07:14;;;;;;;6.00;5.40;;;13.40;99.90;;;;;;5029647;28;20239;-61
2021/05/11 04:09:45;;;;;;;7.00;5.00;;;13.30;99.90;;;;;;5029678;28;20700;-61
2021/05/11 04:12:28;;;;;;;6.70;4.77;;;13.30;99.90;;;;;;5026892;28;20243;-61
2021/05/11 04:17:44;;;;;;;5.60;4.10;;;13.20;99.90;;;;;;5029885;28;20691;-61
2021/05/11 04:20:13;;;;;;;6.13;4.33;;;13.20;99.90;;;;;;5028043;28;20583;-62
2021/05/11 04:22:41;;;;;;;6.00;3.77;;;13.30;99.90;;;;;;5026839;28;20245;-61
2021/05/11 04:25:10;;;;;;;4.97;3.97;;;13.30;99.90;;;;;;5026344;28;20338;-60
2021/05/11 04:27:39;;;;;;;5.03;4.00;;;13.30;99.90;;;;;;5029272;28;20232;-61
2021/05/11 04:30:09;;;;;;;5.90;4.37;;;13.30;99.90;;;;;;5032308;28;20638;-60
2021/05/11 04:32:37;;;;;;;6.40;3.90;;;13.30;99.90;;;;;;5031127;28;20237;-60
2021/05/11 04:35:06;;;;;;;6.20;3.50;;;13.20;99.90;;;;;;5028984;28;20236;-61
2021/05/11 04:37:33;;;;;;;4.10;3.63;;;13.10;99.90;;;;;;5029184;28;20715;-60
2021/05/11 04:40:03;;;;;;;7.23;3.60;;;13.10;99.90;;;;;;5028335;28;20228;-62
2021/05/11 04:42:30;;;;;;;5.13;3.07;;;13.10;99.90;;;;;;5029156;28;20241;-62
2021/05/11 04:45:00;;;;;;;4.60;3.07;;;13.10;99.90;;;;;;5028764;28;20228;-61
2021/05/11 04:47:45;;;;;;;4.07;2.63;;;13.00;99.90;;;;;;5028518;28;20239;-60
2021/05/11 04:50:16;;;;;;;5.50;2.70;;;13.00;99.90;;;;;;5028373;28;20273;-60
2021/05/11 04:52:44;;;;;;;3.63;2.70;;;13.00;99.90;;;;;;5028954;28;20501;-61
2021/05/11 04:55:14;;;;;;;3.73;2.77;;;12.90;99.90;;;;;;5028249;28;20323;-60
2021/05/11 04:57:42;;;;;;;3.23;2.33;;;12.90;99.90;;;;;;5028089;28;20229;-61
2021/05/11 05:00:13;;;;;;;2.93;2.40;;;12.90;99.90;;;;;;5028782;28;21029;-61
2021/05/11 05:02:48;;;;;;;5.23;2.33;;;13.00;99.90;;;;;;5027905;28;20239;-61
2021/05/11 05:05:16;;;;;;;5.30;3.00;;;12.90;99.90;;;;;;5028316;28;20773;-61
2021/05/11 05:07:44;;;;;;;4.37;2.43;;;12.90;99.90;;;;;;5028217;28;20501;-61
2021/05/11 05:10:13;;;;;;;4.10;2.77;;;12.80;99.90;;;;;;5028523;28;20240;-61
2021/05/11 05:12:45;;;;;;;3.83;2.57;;;12.90;99.90;;;;;;5027962;28;20233;-60
2021/05/11 05:15:16;;;;;;;6.93;3.23;;;12.90;99.90;;;;;;5026746;28;20240;-61
2021/05/11 05:17:43;;;;;;;3.33;2.37;;;13.00;99.90;;;;;;5025381;28;20327;-60
2021/05/11 05:20:13;;;;;;;4.77;2.63;;;13.00;99.90;;;;;;5026583;28;20338;-61
2021/05/11 05:22:42;;;;;;;3.87;2.80;;;12.90;99.90;;;;;;5024222;28;20587;-62
2021/05/11 05:25:13;;;;;;;7.83;3.87;;;13.00;99.90;;;;;;5027479;28;20248;-60
2021/05/11 05:27:47;;;;;;;5.60;3.27;;;13.00;99.90;;;;;;5027609;28;20729;-61
2021/05/11 05:30:18;;;;;;;7.23;3.10;;;12.90;99.90;;;;;;5025247;28;20460;-61
2021/05/11 05:32:46;;;;;;;4.83;2.80;;;12.90;99.90;;;;;;5024400;28;20657;-61
2021/05/11 05:35:17;;;;;;;5.53;2.80;;;12.90;99.90;;;;;;5025800;28;20240;-61
2021/05/11 05:37:45;;;;;;;4.00;2.83;;;12.90;99.90;;;;;;5026373;28;20715;-61
2021/05/11 05:40:18;;;;;;;4.17;2.80;;;12.80;99.90;;;;;;5026429;28;20240;-60
2021/05/11 05:42:46;;;;;;;3.50;2.63;;;12.90;99.90;;;;;;5025955;28;20240;-61
2021/05/11 05:45:16;;;;;;;3.40;2.80;;;12.80;99.90;;;;;;5026861;28;20267;-61
2021/05/11 05:47:51;;;;;;;3.83;2.77;;;12.70;99.90;;;;;;5027014;28;20233;-61
2021/05/11 05:50:22;;;;;;;3.83;3.00;;;12.80;99.90;;;;;;5027277;28;20718;-61
2021/05/11 05:53:00;;;;;;;4.67;2.83;;;12.70;99.90;;;;;;5027061;28;20227;-61
2021/05/11 05:55:29;;;;;;;4.80;3.10;;;12.70;99.90;;;;;;5027061;28;20708;-61
2021/05/11 05:57:57;;;;;;;4.43;3.30;;;12.80;99.90;;;;;;5027759;28;20339;-61
2021/05/11 06:00:26;;;;;;;4.50;3.00;;;12.70;99.90;;;;;;5010345;28;20276;-61
2021/05/11 06:02:55;;;;;;;3.57;2.97;;;12.70;99.90;;;;;;5007635;28;20310;-61
2021/05/11 06:05:23;;;;;;;3.13;2.83;;;12.80;99.90;;;;;;5009766;28;20241;-61
2021/05/11 06:07:52;;;;;;;3.00;2.70;;;12.70;99.90;;;;;;5027412;28;20229;-61
2021/05/11 06:10:20;;;;;;;3.20;2.70;;;12.80;99.90;;;;;;5021067;28;20788;-61
2021/05/11 06:12:51;;;;;;;3.63;3.10;;;12.80;99.90;;;;;;5007912;28;20236;-61
2021/05/11 06:18:06;;;;;;;3.07;2.77;;;12.70;99.90;;;;;;5020142;28;20717;-60
2021/05/11 06:20:34;;;;;;;3.27;2.60;;;12.70;99.90;;;;;;5027008;28;20723;-60
2021/05/11 06:23:02;;;;;;;3.47;2.50;;;12.70;99.90;;;;;;5027345;28;20755;-61
2021/05/11 06:25:30;;;;;;;3.73;2.77;;;12.70;99.90;;;;;;5026724;28;20649;-60
2021/05/11 06:27:58;;;;;;;4.83;2.83;;;12.70;99.90;;;;;;5027000;28;20922;-61
2021/05/11 06:30:26;;;;;;;3.97;2.47;;;12.70;99.90;;;;;;5026553;28;20319;-60
2021/05/11 06:32:55;;;;;;;3.47;2.20;;;12.70;99.90;;;;;;5027171;28;20247;-59
2021/05/11 06:35:25;;;;;;;5.03;2.47;;;12.70;99.90;;;;;;5027280;28;20769;-60
2021/05/11 06:37:57;;;;;;;5.03;2.63;;;12.70;99.90;;;;;;5027277;28;20251;-61
2021/05/11 06:40:25;;;;;;;3.33;2.30;;;12.60;99.90;;;;;;5026820;28;20236;-61
2021/05/11 06:42:53;;;;;;;3.77;2.60;;;12.60;99.90;;;;;;5026785;28;20657;-60
2021/05/11 06:48:07;;;;;;;7.03;2.47;;;12.60;99.90;;;;;;5026124;28;20244;-60
2021/05/11 06:50:40;;;;;;;3.97;2.20;;;12.60;99.90;;;;;;5026528;28;20232;-61
2021/05/11 06:53:14;;;;;;;3.17;2.20;;;12.50;99.90;;;;;;5027211;28;20247;-61
2021/05/11 06:55:43;;;;;;;5.00;2.10;;;12.50;99.90;;;;;;5042108;28;20680;-61
2021/05/11 06:58:11;;;;;;;3.13;2.07;;;12.40;99.90;;;;;;5026954;28;20245;-61
2021/05/11 07:00:42;;;;;;;4.27;2.10;;;12.30;99.90;;;;;;5026606;28;20259;-61
2021/05/11 07:03:10;;;;;;;5.07;2.30;;;12.40;99.90;;;;;;5027127;28;20290;-61
2021/05/11 07:05:39;;;;;;;5.43;2.07;;;12.50;99.90;;;;;;5026528;28;20441;-60
2021/05/11 07:08:14;;;;;;;4.53;1.70;;;12.50;99.90;;;;;;5026943;28;20275;-60
2021/05/11 07:10:46;;;;;;;3.03;1.80;;;12.40;99.90;;;;;;5021351;28;20437;-61
2021/05/11 07:13:14;;;;;;;6.83;2.50;;;12.40;99.90;;;;;;5024286;28;20264;-61
2021/05/11 07:15:45;;;;;;;4.93;1.53;;;12.50;99.90;;;;;;5017945;28;20236;-60
2021/05/11 07:18:16;;;;;;;4.33;2.00;;;12.60;99.90;;;;;;5023786;28;20631;-60
2021/05/11 07:20:46;;;;;;;4.67;1.80;;;12.60;99.90;;;;;;5026365;28;20326;-60
2021/05/11 07:23:17;;;;;;;6.10;1.90;;;12.70;99.90;;;;;;5030547;28;20243;-61
2021/05/11 07:25:56;;;;;;;3.80;1.80;;;12.70;99.90;;;;;;5030022;28;20246;-61
2021/05/11 07:31:12;;;;;;;3.70;1.77;;;12.70;99.90;;;;;;5030733;28;20255;-60
2021/05/11 07:33:43;;;;;;;7.17;1.83;;;12.70;99.90;;;;;;5030295;28;20236;-61
2021/05/11 07:36:12;;;;;;;3.80;1.70;;;12.80;99.90;;;;;;5030116;28;20251;-60
2021/05/11 07:38:40;;;;;;;3.80;2.00;;;12.90;99.90;;;;;;5030492;28;20318;-61
2021/05/11 07:41:09;;;;;;;4.23;1.50;;;12.90;99.90;;;;;;5029648;28;20247;-61
2021/05/11 07:43:39;;;;;;;4.53;1.63;;;12.80;99.90;;;;;;5029696;28;20303;-60
2021/05/11 07:52:07;;;;;;;3.63;1.57;;;12.80;99.90;;;;;;5029394;28;20315;-61
2021/05/11 08:06:26;;;;;;;5.33;1.80;;;13.10;99.90;;;;;;5028453;28;20231;-60
2021/05/11 08:14:37;;;;;;;3.70;1.83;;;13.30;99.90;;;;;;5025443;28;20250;-60
2021/05/11 08:17:06;;;;;;;3.03;1.80;;;13.30;99.90;;;;;;5029241;28;20620;-60
2021/05/11 08:27:57;;;;;;;3.27;1.70;;;13.20;99.90;;;;;;5028387;28;20286;-60
2021/05/11 08:30:27;;;;;;;5.37;1.70;;;13.10;99.90;;;;;;5041531;28;20580;-59
2021/05/11 08:32:55;;;;;;;3.70;1.53;;;13.10;99.90;;;;;;5026911;28;20250;-60
2021/05/11 08:35:23;;;;;;;5.80;1.50;;;13.10;99.90;;;;;;5026631;28;20786;-60
2021/05/11 08:37:51;;;;;;;1.70;1.33;;;13.10;99.90;;;;;;5028449;28;20236;-60
2021/05/11 08:40:20;;;;;;;2.47;1.60;;;13.10;99.90;;;;;;5027741;28;20707;-60
2021/05/11 08:42:49;;;;;;;2.37;1.40;;;13.20;99.90;;;;;;5027546;28;20298;-59
2021/05/11 08:45:18;;;;;;;3.97;1.60;;;13.40;99.90;;;;;;5027120;28;20358;-60
2021/05/11 08:47:49;;;;;;;3.87;1.70;;;13.50;99.90;;;;;;5026811;28;20240;-59
2021/05/11 08:50:21;;;;;;;4.53;2.00;;;13.50;99.90;;;;;;5026773;28;20240;-60
2021/05/11 08:53:04;;;;;;;2.43;1.63;;;13.30;99.90;;;;;;5027153;28;20239;-60
2021/05/11 09:04:42;;;;;;;2.83;1.80;;;13.30;99.90;;;;;;5027080;28;20244;-60
2021/05/11 09:07:43;;;;;;;2.47;1.80;;;13.40;99.90;;;;;;5026958;28;20245;-60
2021/05/11 09:33:01;;;;;;;3.30;1.87;;;13.40;99.90;;;;;;5028010;28;20636;-59
2021/05/11 10:40:50;;;;;;;2.63;1.00;;;16.10;99.90;;;;;;5026933;28;20243;-57
2021/05/11 10:46:42;;;;;;;2.87;1.17;;;16.30;99.90;;;;;;5027447;28;20240;-59
2021/05/11 10:49:26;;;;;;;2.60;1.10;;;16.20;99.90;;;;;;5026731;28;20254;-58
2021/05/11 10:52:08;;;;;;;2.43;1.30;;;16.20;99.90;;;;;;5025934;28;20652;-57
2021/05/11 10:54:41;;;;;;;2.23;1.00;;;16.20;99.90;;;;;;5009977;28;20236;-58
2021/05/11 10:57:26;;;;;;;2.93;1.10;;;16.20;99.90;;;;;;5024931;28;20311;-57
2021/05/11 11:00:10;;;;;;;3.00;1.17;;;16.30;99.90;;;;;;5030255;28;20704;-57
2021/05/11 11:02:48;;;;;;;3.80;1.33;;;16.40;99.90;;;;;;5030358;28;20596;-59
2021/05/11 11:05:36;;;;;;;3.00;1.00;;;16.70;99.90;;;;;;5020279;28;20248;-58
2021/05/11 11:08:18;;;;;;;3.33;1.00;;;17.00;99.90;;;;;;5025100;28;20310;-57
2021/05/11 11:10:47;;;;;;;6.70;1.30;;;17.40;99.90;;;;;;5026058;28;20238;-58
2021/05/11 11:13:15;;;;;;;2.20;0.90;;;17.50;99.90;;;;;;5028008;28;20331;-59
2021/05/11 11:15:43;;;;;;;2.90;0.90;;;17.60;99.90;;;;;;5030007;28;20239;-56
2021/05/11 11:18:11;;;;;;;3.27;0.90;;;17.30;99.90;;;;;;5030552;28;20241;-59
2021/05/11 11:20:44;;;;;;;3.67;1.43;;;17.40;99.90;;;;;;5029845;28;20311;-58
2021/05/11 11:26:12;;;;;;;2.50;1.00;;;17.50;99.90;;;;;;5029688;28;20233;-58
2021/05/11 11:28:41;;;;;;;2.13;1.00;;;17.40;99.90;;;;;;5029806;28;20705;-57
2021/05/11 11:31:23;;;;;;;1.83;1.00;;;17.50;99.90;;;;;;5026431;28;20307;-59
2021/05/11 11:33:52;;;;;;;1.83;1.07;;;17.50;99.90;;;;;;5026742;28;20720;-59
2021/05/11 11:36:31;;;;;;;2.67;1.20;;;17.70;99.90;;;;;;5029296;28;20341;-59
2021/05/11 11:39:04;;;;;;;2.63;0.90;;;18.00;99.90;;;;;;5030076;28;20237;-57
2021/05/11 11:41:34;;;;;;;3.13;0.97;;;17.80;99.90;;;;;;5025884;28;20747;-58
2021/05/11 11:44:01;;;;;;;3.63;1.10;;;17.70;99.90;;;;;;5026635;28;20222;-57
2021/05/11 11:46:30;;;;;;;3.60;0.87;;;17.60;99.90;;;;;;5029955;28;20294;-59
2021/05/11 11:49:03;;;;;;;5.80;1.30;;;17.30;99.90;;;;;;5029131;28;20233;-57
2021/05/11 11:51:34;;;;;;;2.00;1.00;;;17.10;99.90;;;;;;5024292;28;20244;-58
2021/05/11 11:54:17;;;;;;;3.53;1.10;;;17.00;99.90;;;;;;5027411;28;20233;-55
2021/05/11 11:59:32;;;;;;;2.67;1.20;;;16.90;99.90;;;;;;5031541;28;20260;-58
2021/05/11 12:02:02;;;;;;;2.80;1.00;;;16.60;99.90;;;;;;5027473;28;21357;-59
2021/05/11 12:04:32;;;;;;;5.23;1.03;;;16.60;99.90;;;;;;5028157;28;20261;-57
2021/05/11 12:07:09;;;;;;;2.97;1.03;;;16.50;99.90;;;;;;5030816;28;20324;-59
2021/05/11 12:09:40;;;;;;;2.37;1.00;;;16.50;99.90;;;;;;5028794;28;20247;-59
2021/05/11 12:12:10;;;;;;;2.53;0.80;;;16.40;99.90;;;;;;5018162;28;20244;-58
2021/05/11 12:14:38;;;;;;;5.03;1.20;;;16.50;99.90;;;;;;5011187;28;20427;-59
2021/05/11 12:17:06;;;;;;;2.00;0.90;;;16.50;99.90;;;;;;5006539;28;21133;-58
2021/05/11 12:19:35;;;;;;;2.50;1.20;;;16.40;99.90;;;;;;5011301;28;20624;-57
2021/05/11 12:22:05;;;;;;;3.43;1.07;;;16.50;99.90;;;;;;5009268;28;23237;-59
2021/05/11 12:24:35;;;;;;;1.77;0.90;;;16.60;99.90;;;;;;5010937;28;20337;-57
2021/05/11 12:27:19;;;;;;;2.97;1.00;;;16.80;99.90;;;;;;5004844;28;20241;-59
2021/05/11 12:30:01;;;;;;;2.43;1.00;;;16.90;99.90;;;;;;5010947;28;20382;-58
2021/05/11 12:32:29;;;;;;;2.07;0.80;;;16.60;99.90;;;;;;5008545;28;20276;-59
2021/05/11 12:35:09;;;;;;;3.67;0.87;;;16.50;99.90;;;;;;5009781;28;20235;-58
2021/05/11 12:37:49;;;;;;;2.23;1.00;;;16.50;99.90;;;;;;5005787;28;20678;-59
2021/05/11 12:40:25;;;;;;;2.13;0.90;;;16.40;99.90;;;;;;5010050;28;20248;-58
2021/05/11 12:42:56;;;;;;;2.13;0.90;;;16.30;99.90;;;;;;5008090;28;20812;-59
2021/05/11 12:45:25;;;;;;;2.93;1.00;;;16.30;99.90;;;;;;5010742;28;20243;-57
2021/05/11 12:48:00;;;;;;;2.13;0.83;;;16.30;99.90;;;;;;5006932;28;20264;-59
2021/05/11 12:50:33;;;;;;;2.73;1.00;;;16.30;99.90;;;;;;5009070;28;20244;-58
2021/05/11 12:53:27;;;;;;;3.40;1.00;;;16.40;99.90;;;;;;5007737;28;20232;-58
2021/05/11 12:56:06;;;;;;;1.70;1.00;;;16.20;99.90;;;;;;5022767;28;20241;-57
2021/05/11 12:58:49;;;;;;;4.23;1.17;;;16.10;99.90;;;;;;5005497;28;20689;-58
2021/05/11 13:01:33;;;;;;;3.37;1.00;;;16.00;99.90;;;;;;5006465;28;20670;-58
2021/05/11 13:21:02;;;;;;;4.83;1.00;;;16.00;99.90;;;;;;5009226;28;20258;-59
2021/05/11 13:26:22;;;;;;;1.00;0.90;;;16.00;99.90;;;;;;5008947;28;20545;-59
2021/05/11 13:28:54;;;;;;;2.30;0.97;;;16.00;99.90;;;;;;5005758;28;20282;-58
2021/05/11 13:31:28;;;;;;;2.00;0.90;;;16.00;99.90;;;;;;5005824;28;20255;-59
2021/05/11 13:34:07;;;;;;;1.50;0.90;;;16.10;99.90;;;;;;5005678;28;20704;-59
2021/05/11 13:36:36;;;;;;;2.47;1.00;;;16.20;99.90;;;;;;5006067;28;20244;-59
2021/05/11 13:39:06;;;;;;;2.97;1.03;;;16.20;99.90;;;;;;5009562;28;20249;-60
2021/05/11 13:41:34;;;;;;;3.10;0.90;;;16.20;99.90;;;;;;5006777;28;20297;-59
2021/05/11 13:44:02;;;;;;;2.60;1.00;;;16.30;99.90;;;;;;5006194;28;20927;-59
2021/05/11 13:46:31;;;;;;;2.77;0.97;;;16.40;99.90;;;;;;5008016;28;20322;-58
2021/05/11 13:48:59;;;;;;;3.33;0.90;;;16.20;99.90;;;;;;5005464;28;20560;-59
2021/05/11 13:51:27;;;;;;;3.17;0.90;;;16.20;99.90;;;;;;5011213;28;20274;-59
2021/05/11 13:53:57;;;;;;;2.53;0.80;;;16.20;99.90;;;;;;5007427;28;20319;-60
2021/05/11 13:56:39;;;;;;;1.80;0.90;;;16.20;99.90;;;;;;5009051;28;20244;-59
2021/05/11 14:04:39;;;;;;;1.67;0.90;;;16.00;99.90;;;;;;5008643;28;20240;-59
2021/05/11 14:07:07;;;;;;;1.83;0.80;;;15.90;99.90;;;;;;5006401;28;20259;-58
2021/05/11 14:09:35;;;;;;;1.37;0.80;;;15.90;99.90;;;;;;5010555;28;20268;-60
2021/05/11 14:12:04;;;;;;;2.00;0.83;;;15.80;99.90;;;;;;5029183;28;20240;-59
2021/05/11 14:14:33;;;;;;;2.50;0.83;;;15.80;99.90;;;;;;5014677;28;20306;-59
2021/05/11 14:17:01;;;;;;;2.30;0.90;;;15.80;99.90;;;;;;5006395;28;21455;-59
2021/05/11 14:19:31;;;;;;;2.13;0.80;;;15.90;99.90;;;;;;5020022;28;20764;-59
2021/05/11 14:22:00;;;;;;;2.67;0.90;;;15.90;99.90;;;;;;5015125;28;20448;-60
2021/05/11 14:24:28;;;;;;;1.47;0.80;;;15.80;99.90;;;;;;5015031;28;20331;-59
2021/05/11 14:26:56;;;;;;;2.87;1.20;;;15.80;99.90;;;;;;5006654;28;20248;-57
2021/05/11 14:29:26;;;;;;;1.63;0.90;;;15.90;99.90;;;;;;5010214;28;20647;-59
2021/05/11 14:31:53;;;;;;;1.30;0.90;;;15.90;99.90;;;;;;5015379;28;20239;-59
2021/05/11 14:34:25;;;;;;;3.47;0.87;;;15.90;99.90;;;;;;5016714;28;20243;-59
2021/05/11 14:36:54;;;;;;;1.93;1.00;;;15.80;99.90;;;;;;5014911;28;20251;-60
2021/05/11 14:39:24;;;;;;;1.60;0.83;;;15.90;99.90;;;;;;5014011;28;20237;-60
2021/05/11 14:41:56;;;;;;;1.87;0.90;;;15.80;99.90;;;;;;5015221;28;20366;-59
2021/05/11 14:44:25;;;;;;;1.77;0.90;;;15.90;99.90;;;;;;5015658;28;20244;-59
2021/05/11 14:46:55;;;;;;;2.87;1.00;;;15.90;99.90;;;;;;5011042;28;20244;-59
2021/05/11 14:49:25;;;;;;;1.77;0.90;;;15.80;99.90;;;;;;5015378;28;20259;-59
2021/05/11 14:51:53;;;;;;;1.17;0.80;;;15.90;99.90;;;;;;5014744;28;20259;-59
2021/05/11 14:54:21;;;;;;;3.77;1.00;;;15.90;99.90;;;;;;5019454;28;20253;-60
2021/05/11 14:56:49;;;;;;;2.23;0.80;;;16.10;99.90;;;;;;5015112;28;20725;-60
2021/05/11 14:59:18;;;;;;;3.20;0.77;;;16.30;99.90;;;;;;5018744;28;20306;-60
2021/05/11 15:01:47;;;;;;;1.40;0.83;;;16.30;99.90;;;;;;5032370;28;20267;-60
2021/05/11 15:04:15;;;;;;;1.57;1.00;;;16.20;99.90;;;;;;5018300;28;20775;-59
2021/05/11 15:06:44;;;;;;;4.30;1.23;;;16.10;99.90;;;;;;5031832;28;20236;-60
2021/05/11 15:09:14;;;;;;;2.43;1.10;;;16.00;99.90;;;;;;5031860;28;20750;-60
2021/05/11 15:11:42;;;;;;;5.20;1.40;;;16.00;99.90;;;;;;5032025;28;20689;-58
2021/05/11 15:14:10;;;;;;;1.60;0.90;;;16.00;99.90;;;;;;5031352;28;20233;-59
2021/05/11 15:16:39;;;;;;;3.43;1.00;;;15.90;99.90;;;;;;5031639;28;20235;-58
2021/05/11 15:19:10;;;;;;;2.80;1.37;;;15.80;99.90;;;;;;5031824;28;20286;-58
2021/05/11 15:21:39;;;;;;;2.53;1.10;;;15.80;99.90;;;;;;5028907;28;20302;-59
2021/05/11 15:24:10;;;;;;;2.77;1.00;;;15.70;99.90;;;;;;5031796;28;20244;-60
2021/05/11 15:26:38;;;;;;;4.87;1.17;;;15.60;99.90;;;;;;5028650;28;20751;-59
2021/05/11 15:29:07;;;;;;;1.53;1.00;;;15.60;99.90;;;;;;5023778;28;20241;-59
2021/05/11 15:31:35;;;;;;;3.93;1.23;;;15.50;99.90;;;;;;5031234;28;20238;-59
2021/05/11 15:34:03;;;;;;;3.47;1.07;;;15.50;99.90;;;;;;5030891;28;20621;-58
2021/05/11 15:36:51;;;;;;;2.17;1.00;;;15.60;99.90;;;;;;5032150;28;20245;-57
2021/05/11 15:39:22;;;;;;;4.70;1.20;;;15.60;99.90;;;;;;5032197;28;20322;-59
2021/05/11 15:41:49;;;;;;;2.50;1.10;;;15.60;99.90;;;;;;5030940;28;20556;-59
2021/05/11 15:44:17;;;;;;;2.90;0.90;;;15.70;99.90;;;;;;5029352;28;20324;-59
2021/05/11 15:46:45;;;;;;;1.87;1.13;;;15.80;99.90;;;;;;5029757;28;20287;-58
2021/05/11 15:49:13;;;;;;;3.13;1.10;;;15.90;99.90;;;;;;5028987;28;20237;-59
2021/05/11 15:51:41;;;;;;;4.33;1.33;;;15.90;99.90;;;;;;5029602;28;20240;-60
2021/05/11 15:54:09;;;;;;;3.17;1.07;;;15.80;99.90;;;;;;5025406;28;20243;-58
2021/05/11 15:56:38;;;;;;;3.27;1.30;;;15.70;99.90;;;;;;5025369;28;20251;-60
2021/05/11 15:59:08;;;;;;;2.77;1.30;;;15.70;99.90;;;;;;5027887;28;20248;-60
2021/05/11 16:01:36;;;;;;;3.40;1.20;;;15.50;99.90;;;;;;5027492;28;20251;-57
2021/05/11 16:04:04;;;;;;;6.60;1.73;;;15.50;99.90;;;;;;5027374;28;20327;-60
2021/05/11 16:06:32;;;;;;;2.90;1.40;;;15.30;99.90;;;;;;5016593;28;20356;-59
2021/05/11 16:09:00;;;;;;;3.13;1.27;;;15.40;99.90;;;;;;5025317;28;20239;-60
2021/05/11 16:11:27;;;;;;;3.50;1.47;;;15.40;99.90;;;;;;5027098;28;20225;-59
2021/05/11 16:13:56;;;;;;;2.73;1.33;;;15.30;99.90;;;;;;5027494;28;20625;-59
2021/05/11 16:16:24;;;;;;;6.20;1.77;;;15.30;99.90;;;;;;5024901;28;20244;-59
2021/05/11 16:18:51;;;;;;;4.73;1.60;;;15.30;99.90;;;;;;5027806;28;20725;-59
2021/05/11 16:21:19;;;;;;;4.77;1.60;;;15.20;99.90;;;;;;5027848;28;20594;-60
2021/05/11 16:23:48;;;;;;;2.97;1.40;;;15.20;99.90;;;;;;5027862;28;20240;-59
2021/05/11 16:26:15;;;;;;;5.17;1.60;;;15.10;99.90;;;;;;5026394;28;20240;-60
2021/05/11 16:28:43;;;;;;;2.10;1.40;;;15.10;99.90;;;;;;5027844;28;20240;-59
2021/05/11 16:31:12;;;;;;;3.88;1.58;;;15.10;99.90;;;;;;5027352;28;20429;-60
2021/05/11 16:33:40;;;;;;;2.73;1.43;;;15.20;99.90;;;;;;5027519;28;20328;-60
2021/05/11 16:36:07;;;;;;;6.47;1.63;;;15.10;99.90;;;;;;5026975;28;20244;-60